sensor_id;sensor_type;location;lat;lon;timestamp;pressure;altitude;pressure_sealevel;temperature;humidity
45253;BME280;63171;50.520;30.486;2023-02-28T00:00:25;101198.25;;;-0.85;69.26
45253;BME280;63171;50.520;30.486;2023-02-28T00:01:16;101196.50;;;-0.93;69.15
45253;BME280;63171;50.520;30.486;2023-02-28T00:02:06;101206.78;;;-0.93;69.02
45253;BME280;63171;50.520;30.486;2023-02-28T00:02:57;101205.09;;;-0.92;69.03
45253;BME280;63171;50.520;30.486;2023-02-28T00:03:47;101209.38;;;-0.86;69.34
45253;BME280;63171;50.520;30.486;2023-02-28T00:04:37;101206.81;;;-0.85;69.28
45253;BME280;63171;50.520;30.486;2023-02-28T00:05:27;101200.78;;;-0.93;69.16
45253;BME280;63171;50.520;30.486;2023-02-28T00:06:20;101212.81;;;-0.91;69.34
45253;BME280;63171;50.520;30.486;2023-02-28T00:07:10;101208.53;;;-0.90;69.31
45253;BME280;63171;50.520;30.486;2023-02-28T00:08:01;101206.81;;;-0.91;68.92
45253;BME280;63171;50.520;30.486;2023-02-28T00:08:51;101213.66;;;-0.88;69.28
45253;BME280;63171;50.520;30.486;2023-02-28T00:09:41;101211.94;;;-0.91;69.18
45253;BME280;63171;50.520;30.486;2023-02-28T00:10:31;101213.66;;;-0.88;69.29
45253;BME280;63171;50.520;30.486;2023-02-28T00:11:22;101211.97;;;-0.85;69.26
45253;BME280;63171;50.520;30.486;2023-02-28T00:12:12;101215.44;;;-0.80;69.15
45253;BME280;63171;50.520;30.486;2023-02-28T00:13:04;101215.41;;;-0.83;69.14
45253;BME280;63171;50.520;30.486;2023-02-28T00:13:55;101217.03;;;-0.94;68.88
45253;BME280;63171;50.520;30.486;2023-02-28T00:14:45;101218.75;;;-0.98;69.10
45253;BME280;63171;50.520;30.486;2023-02-28T00:15:34;101211.88;;;-0.97;69.10
45253;BME280;63171;50.520;30.486;2023-02-28T00:16:25;101208.50;;;-0.93;69.07
45253;BME280;63171;50.520;30.486;2023-02-28T00:17:15;101204.22;;;-0.93;68.94
45253;BME280;63171;50.520;30.486;2023-02-28T00:18:06;101206.75;;;-0.94;69.13
45253;BME280;63171;50.520;30.486;2023-02-28T00:18:56;101209.31;;;-1.00;69.27
45253;BME280;63171;50.520;30.486;2023-02-28T00:19:47;101211.00;;;-1.02;69.47
45253;BME280;63171;50.520;30.486;2023-02-28T00:20:37;101203.31;;;-0.99;69.20
45253;BME280;63171;50.520;30.486;2023-02-28T00:21:29;101201.59;;;-1.00;68.74
45253;BME280;63171;50.520;30.486;2023-02-28T00:22:20;101205.91;;;-0.95;69.37
45253;BME280;63171;50.520;30.486;2023-02-28T00:23:11;101199.97;;;-0.87;69.03
45253;BME280;63171;50.520;30.486;2023-02-28T00:24:01;101206.81;;;-0.90;69.17
45253;BME280;63171;50.520;30.486;2023-02-28T00:24:52;101201.59;;;-0.96;68.94
45253;BME280;63171;50.520;30.486;2023-02-28T00:25:42;101204.22;;;-0.90;69.27
45253;BME280;63171;50.520;30.486;2023-02-28T00:26:32;101212.75;;;-0.97;69.19
45253;BME280;63171;50.520;30.486;2023-02-28T00:27:22;101192.94;;;-1.13;68.73
45253;BME280;63171;50.520;30.486;2023-02-28T00:28:13;101198.00;;;-1.22;68.68
45253;BME280;63171;50.520;30.486;2023-02-28T00:29:03;101204.88;;;-1.21;68.99
45253;BME280;63171;50.520;30.486;2023-02-28T00:29:53;101209.19;;;-1.18;68.84
45253;BME280;63171;50.520;30.486;2023-02-28T00:30:43;101202.28;;;-1.21;68.85
45253;BME280;63171;50.520;30.486;2023-02-28T00:31:34;101201.41;;;-1.29;68.96
45253;BME280;63171;50.520;30.486;2023-02-28T00:32:24;101202.16;;;-1.39;68.95
45253;BME280;63171;50.520;30.486;2023-02-28T00:33:14;101206.47;;;-1.34;68.70
45253;BME280;63171;50.520;30.486;2023-02-28T00:34:04;101206.56;;;-1.23;69.21
45253;BME280;63171;50.520;30.486;2023-02-28T00:34:55;101206.56;;;-1.22;69.08
45253;BME280;63171;50.520;30.486;2023-02-28T00:35:45;101208.38;;;-1.13;69.20
45253;BME280;63171;50.520;30.486;2023-02-28T00:36:36;101204.97;;;-1.07;69.28
45253;BME280;63171;50.520;30.486;2023-02-28T00:37:27;101210.16;;;-1.01;69.35
45253;BME280;63171;50.520;30.486;2023-02-28T00:38:17;101202.47;;;-0.94;69.48
45253;BME280;63171;50.520;30.486;2023-02-28T00:39:08;101216.19;;;-0.96;69.77
45253;BME280;63171;50.520;30.486;2023-02-28T00:39:58;101202.47;;;-0.98;69.46
45253;BME280;63171;50.520;30.486;2023-02-28T00:40:48;101211.88;;;-0.97;69.17
45253;BME280;63171;50.520;30.486;2023-02-28T00:41:38;101205.03;;;-0.94;69.16
45253;BME280;63171;50.520;30.486;2023-02-28T00:42:30;101205.94;;;-0.93;69.12
45253;BME280;63171;50.520;30.486;2023-02-28T00:43:20;101208.47;;;-0.95;69.24
45253;BME280;63171;50.520;30.486;2023-02-28T00:44:10;101213.63;;;-0.95;69.39
45253;BME280;63171;50.520;30.486;2023-02-28T00:45:01;101207.66;;;-0.91;69.19
45253;BME280;63171;50.520;30.486;2023-02-28T00:45:54;101205.03;;;-0.95;69.35
45253;BME280;63171;50.520;30.486;2023-02-28T00:46:43;101206.72;;;-1.03;69.15
45253;BME280;63171;50.520;30.486;2023-02-28T00:47:35;101208.44;;;-0.99;69.42
45253;BME280;63171;50.520;30.486;2023-02-28T00:48:25;101211.03;;;-0.98;69.49
45253;BME280;63171;50.520;30.486;2023-02-28T00:49:15;101204.19;;;-0.94;69.56
45253;BME280;63171;50.520;30.486;2023-02-28T00:50:06;101205.03;;;-0.94;69.34
45253;BME280;63171;50.520;30.486;2023-02-28T00:51:00;101201.59;;;-0.99;69.44
45253;BME280;63171;50.520;30.486;2023-02-28T00:51:52;101209.31;;;-0.99;69.43
45253;BME280;63171;50.520;30.486;2023-02-28T00:52:42;101208.47;;;-0.98;69.33
45253;BME280;63171;50.520;30.486;2023-02-28T00:53:32;101205.88;;;-0.99;69.09
45253;BME280;63171;50.520;30.486;2023-02-28T00:54:23;101197.31;;;-0.98;69.02
45253;BME280;63171;50.520;30.486;2023-02-28T00:55:13;101206.75;;;-0.99;69.03
45253;BME280;63171;50.520;30.486;2023-02-28T00:56:05;101202.47;;;-0.97;69.45
45253;BME280;63171;50.520;30.486;2023-02-28T00:56:54;101195.66;;;-0.93;69.47
45253;BME280;63171;50.520;30.486;2023-02-28T00:57:45;101209.31;;;-0.97;69.33
45253;BME280;63171;50.520;30.486;2023-02-28T00:58:35;101203.38;;;-0.93;69.07
45253;BME280;63171;50.520;30.486;2023-02-28T00:59:25;101202.47;;;-0.98;69.28
45253;BME280;63171;50.520;30.486;2023-02-28T01:00:15;101200.72;;;-1.01;69.02
45253;BME280;63171;50.520;30.486;2023-02-28T01:02:52;101209.31;;;-0.96;69.09
45253;BME280;63171;50.520;30.486;2023-02-28T01:03:41;101206.75;;;-0.96;69.21
45253;BME280;63171;50.520;30.486;2023-02-28T01:04:32;101208.47;;;-0.95;69.47
45253;BME280;63171;50.520;30.486;2023-02-28T01:05:24;101207.63;;;-0.95;68.97
45253;BME280;63171;50.520;30.486;2023-02-28T01:06:15;101201.59;;;-0.97;68.99
45253;BME280;63171;50.520;30.486;2023-02-28T01:07:06;101199.94;;;-0.92;68.95
45253;BME280;63171;50.520;30.486;2023-02-28T01:07:57;101199.91;;;-0.94;69.05
45253;BME280;63171;50.520;30.486;2023-02-28T01:08:47;101199.03;;;-0.99;68.76
45253;BME280;63171;50.520;30.486;2023-02-28T01:09:38;101205.03;;;-1.00;68.80
45253;BME280;63171;50.520;30.486;2023-02-28T01:10:28;101203.28;;;-1.05;68.98
45253;BME280;63171;50.520;30.486;2023-02-28T01:11:20;101208.38;;;-1.10;69.06
45253;BME280;63171;50.520;30.486;2023-02-28T01:12:10;101206.63;;;-1.20;68.93
45253;BME280;63171;50.520;30.486;2023-02-28T01:13:01;101210.06;;;-1.16;69.08
45253;BME280;63171;50.520;30.486;2023-02-28T01:13:50;101205.84;;;-1.07;68.83
45253;BME280;63171;50.520;30.486;2023-02-28T01:14:41;101211.00;;;-1.05;69.20
45253;BME280;63171;50.520;30.486;2023-02-28T01:15:31;101216.16;;;-1.04;68.83
45253;BME280;63171;50.520;30.486;2023-02-28T01:16:23;101210.09;;;-1.10;68.99
45253;BME280;63171;50.520;30.486;2023-02-28T01:17:13;101209.22;;;-1.12;68.83
45253;BME280;63171;50.520;30.486;2023-02-28T01:18:04;101215.28;;;-1.06;68.74
45253;BME280;63171;50.520;30.486;2023-02-28T01:18:55;101211.84;;;-1.05;68.83
45253;BME280;63171;50.520;30.486;2023-02-28T01:19:44;101207.53;;;-1.09;68.62
45253;BME280;63171;50.520;30.486;2023-02-28T01:20:36;101218.63;;;-1.19;68.75
45253;BME280;63171;50.520;30.486;2023-02-28T01:21:26;101218.63;;;-1.17;68.90
45253;BME280;63171;50.520;30.486;2023-02-28T01:22:18;101213.50;;;-1.10;69.05
45253;BME280;63171;50.520;30.486;2023-02-28T01:23:08;101205.81;;;-1.08;69.09
45253;BME280;63171;50.520;30.486;2023-02-28T01:23:59;101207.50;;;-1.15;68.95
45253;BME280;63171;50.520;30.486;2023-02-28T01:24:48;101206.56;;;-1.26;68.56
45253;BME280;63171;50.520;30.486;2023-02-28T01:25:39;101206.56;;;-1.22;68.76
45253;BME280;63171;50.520;30.486;2023-02-28T01:26:29;101208.34;;;-1.14;69.01
45253;BME280;63171;50.520;30.486;2023-02-28T01:27:20;101210.09;;;-1.10;69.00
45253;BME280;63171;50.520;30.486;2023-02-28T01:28:10;101205.81;;;-1.10;68.98
45253;BME280;63171;50.520;30.486;2023-02-28T01:29:01;101210.09;;;-1.09;69.13
45253;BME280;63171;50.520;30.486;2023-02-28T01:29:51;101208.34;;;-1.16;68.65
45253;BME280;63171;50.520;30.486;2023-02-28T01:30:42;101212.63;;;-1.18;68.72
45253;BME280;63171;50.520;30.486;2023-02-28T01:31:32;101213.50;;;-1.10;68.81
45253;BME280;63171;50.520;30.486;2023-02-28T01:32:22;101209.16;;;-1.22;68.59
45253;BME280;63171;50.520;30.486;2023-02-28T01:33:12;101212.63;;;-1.20;68.61
45253;BME280;63171;50.520;30.486;2023-02-28T01:34:03;101208.34;;;-1.17;68.93
45253;BME280;63171;50.520;30.486;2023-02-28T01:34:53;101210.00;;;-1.21;68.94
45253;BME280;63171;50.520;30.486;2023-02-28T01:35:46;101205.78;;;-1.16;68.97
45253;BME280;63171;50.520;30.486;2023-02-28T01:36:36;101210.03;;;-1.20;68.54
45253;BME280;63171;50.520;30.486;2023-02-28T01:37:28;101210.06;;;-1.18;68.66
45253;BME280;63171;50.520;30.486;2023-02-28T01:38:18;101206.63;;;-1.17;68.69
45253;BME280;63171;50.520;30.486;2023-02-28T01:39:08;101209.22;;;-1.14;68.79
45253;BME280;63171;50.520;30.486;2023-02-28T01:39:58;101206.66;;;-1.11;68.79
45253;BME280;63171;50.520;30.486;2023-02-28T01:40:48;101207.50;;;-1.13;68.50
45253;BME280;63171;50.520;30.486;2023-02-28T01:41:39;101216.03;;;-1.19;68.85
45253;BME280;63171;50.520;30.486;2023-02-28T01:42:30;101209.22;;;-1.15;68.61
45253;BME280;63171;50.520;30.486;2023-02-28T01:43:23;101208.34;;;-1.16;68.77
45253;BME280;63171;50.520;30.486;2023-02-28T01:45:41;101210.75;;;-1.34;68.73
45253;BME280;63171;50.520;30.486;2023-02-28T01:46:34;101214.16;;;-1.41;68.65
45253;BME280;63171;50.520;30.486;2023-02-28T01:47:25;101216.75;;;-1.37;68.72
45253;BME280;63171;50.520;30.486;2023-02-28T01:48:16;101216.81;;;-1.31;68.78
45253;BME280;63171;50.520;30.486;2023-02-28T01:49:09;101213.41;;;-1.28;68.78
45253;BME280;63171;50.520;30.486;2023-02-28T01:50:04;101215.97;;;-1.27;68.82
45253;BME280;63171;50.520;30.486;2023-02-28T01:50:57;101205.66;;;-1.31;68.48
45253;BME280;63171;50.520;30.486;2023-02-28T01:51:53;101207.38;;;-1.33;68.38
45253;BME280;63171;50.520;30.486;2023-02-28T01:52:47;101211.69;;;-1.28;68.43
45253;BME280;63171;50.520;30.486;2023-02-28T01:53:44;101206.53;;;-1.31;68.44
45253;BME280;63171;50.520;30.486;2023-02-28T01:54:35;101212.47;;;-1.35;68.37
45253;BME280;63171;50.520;30.486;2023-02-28T01:55:28;101212.50;;;-1.33;68.83
45253;BME280;63171;50.520;30.486;2023-02-28T01:56:24;101210.81;;;-1.31;68.38
45253;BME280;63171;50.520;30.486;2023-02-28T01:57:19;101212.44;;;-1.39;68.69
45253;BME280;63171;50.520;30.486;2023-02-28T01:58:10;101210.72;;;-1.43;68.46
45253;BME280;63171;50.520;30.486;2023-02-28T01:59:02;101215.03;;;-1.38;68.51
45253;BME280;63171;50.520;30.486;2023-02-28T01:59:55;101218.44;;;-1.40;68.60
45253;BME280;63171;50.520;30.486;2023-02-28T02:00:48;101213.28;;;-1.43;68.29
45253;BME280;63171;50.520;30.486;2023-02-28T02:01:38;101221.81;;;-1.46;68.23
45253;BME280;63171;50.520;30.486;2023-02-28T02:02:29;101215.00;;;-1.44;68.57
45253;BME280;63171;50.520;30.486;2023-02-28T02:03:19;101221.03;;;-1.36;68.51
45253;BME280;63171;50.520;30.486;2023-02-28T02:04:11;101220.22;;;-1.32;68.64
45253;BME280;63171;50.520;30.486;2023-02-28T02:05:05;101220.25;;;-1.29;68.60
45253;BME280;63171;50.520;30.486;2023-02-28T02:05:56;101219.38;;;-1.32;68.11
45253;BME280;63171;50.520;30.486;2023-02-28T02:06:47;101217.66;;;-1.32;68.37
45253;BME280;63171;50.520;30.486;2023-02-28T02:07:41;101219.38;;;-1.29;68.52
45253;BME280;63171;50.520;30.486;2023-02-28T02:08:33;101215.94;;;-1.31;68.35
45253;BME280;63171;50.520;30.486;2023-02-28T02:09:24;101221.09;;;-1.30;68.60
45253;BME280;63171;50.520;30.486;2023-02-28T02:10:18;101221.88;;;-1.40;68.43
45253;BME280;63171;50.520;30.486;2023-02-28T02:11:16;101214.16;;;-1.40;68.18
45253;BME280;63171;50.520;30.486;2023-02-28T02:12:15;101222.69;;;-1.44;68.06
45253;BME280;63171;50.520;30.486;2023-02-28T02:13:22;101215.72;;;-1.57;68.11
45253;BME280;63171;50.520;30.486;2023-02-28T02:14:33;101218.22;;;-1.62;68.05
45253;BME280;63171;50.520;30.486;2023-02-28T02:15:33;101219.88;;;-1.73;67.79
45253;BME280;63171;50.520;30.486;2023-02-28T02:16:41;101218.28;;;-1.59;68.10
45253;BME280;63171;50.520;30.486;2023-02-28T02:17:38;101226.88;;;-1.54;67.85
45253;BME280;63171;50.520;30.486;2023-02-28T02:18:34;101228.59;;;-1.53;68.00
45253;BME280;63171;50.520;30.486;2023-02-28T02:19:58;101222.59;;;-1.53;68.06
45253;BME280;63171;50.520;30.486;2023-02-28T02:22:45;101229.47;;;-1.51;67.79
45253;BME280;63171;50.520;30.486;2023-02-28T02:25:19;101228.59;;;-1.53;67.74
45253;BME280;63171;50.520;30.486;2023-02-28T02:27:57;101231.25;;;-1.45;67.87
45253;BME280;63171;50.520;30.486;2023-02-28T02:29:23;101233.84;;;-1.42;68.04
45253;BME280;63171;50.520;30.486;2023-02-28T02:32:08;101236.34;;;-1.48;67.83
45253;BME280;63171;50.520;30.486;2023-02-28T02:33:23;101233.84;;;-1.42;67.83
45253;BME280;63171;50.520;30.486;2023-02-28T02:34:38;101245.84;;;-1.38;67.88
45253;BME280;63171;50.520;30.486;2023-02-28T02:35:35;101238.97;;;-1.43;68.10
45253;BME280;63171;50.520;30.486;2023-02-28T02:36:33;101234.69;;;-1.44;67.56
45253;BME280;63171;50.520;30.486;2023-02-28T02:37:28;101246.66;;;-1.46;67.97
45253;BME280;63171;50.520;30.486;2023-02-28T02:38:32;101242.31;;;-1.49;67.72
45253;BME280;63171;50.520;30.486;2023-02-28T02:39:27;101239.72;;;-1.54;67.80
45253;BME280;63171;50.520;30.486;2023-02-28T02:40:22;101250.88;;;-1.53;67.82
45253;BME280;63171;50.520;30.486;2023-02-28T02:41:17;101242.31;;;-1.51;67.53
45253;BME280;63171;50.520;30.486;2023-02-28T02:42:14;101248.31;;;-1.49;67.73
45253;BME280;63171;50.520;30.486;2023-02-28T02:43:09;101243.19;;;-1.50;67.61
45253;BME280;63171;50.520;30.486;2023-02-28T02:44:06;101246.59;;;-1.50;67.64
45253;BME280;63171;50.520;30.486;2023-02-28T02:45:02;101245.75;;;-1.47;67.92
45253;BME280;63171;50.520;30.486;2023-02-28T02:45:58;101243.16;;;-1.52;67.66
45253;BME280;63171;50.520;30.486;2023-02-28T02:46:50;101252.59;;;-1.49;67.59
45253;BME280;63171;50.520;30.486;2023-02-28T02:47:44;101249.16;;;-1.53;67.54
45253;BME280;63171;50.520;30.486;2023-02-28T02:48:36;101249.16;;;-1.51;67.53
45253;BME280;63171;50.520;30.486;2023-02-28T02:49:31;101249.19;;;-1.50;67.63
45253;BME280;63171;50.520;30.486;2023-02-28T02:50:24;101247.44;;;-1.52;67.50
45253;BME280;63171;50.520;30.486;2023-02-28T02:51:23;101255.22;;;-1.46;67.78
45253;BME280;63171;50.520;30.486;2023-02-28T02:52:18;101253.53;;;-1.45;67.71
45253;BME280;63171;50.520;30.486;2023-02-28T02:53:12;101255.97;;;-1.58;67.33
45253;BME280;63171;50.520;30.486;2023-02-28T02:54:08;101255.97;;;-1.56;67.40
45253;BME280;63171;50.520;30.486;2023-02-28T02:55:00;101245.72;;;-1.53;67.70
45253;BME280;63171;50.520;30.486;2023-02-28T02:55:52;101253.53;;;-1.44;67.48
45253;BME280;63171;50.520;30.486;2023-02-28T02:56:47;101257.81;;;-1.43;67.73
45253;BME280;63171;50.520;30.486;2023-02-28T02:57:41;101254.28;;;-1.56;67.32
45253;BME280;63171;50.520;30.486;2023-02-28T02:58:40;101258.53;;;-1.59;67.31
45253;BME280;63171;50.520;30.486;2023-02-28T02:59:33;101260.25;;;-1.60;67.63
45253;BME280;63171;50.520;30.486;2023-02-28T03:00:30;101254.19;;;-1.65;67.22
45253;BME280;63171;50.520;30.486;2023-02-28T03:01:23;101249.03;;;-1.66;67.52
45253;BME280;63171;50.520;30.486;2023-02-28T03:02:17;101254.16;;;-1.66;67.63
45253;BME280;63171;50.520;30.486;2023-02-28T03:03:09;101251.69;;;-1.59;67.55
45253;BME280;63171;50.520;30.486;2023-02-28T03:04:04;101258.59;;;-1.52;67.33
45253;BME280;63171;50.520;30.486;2023-02-28T03:04:59;101255.16;;;-1.51;67.42
45253;BME280;63171;50.520;30.486;2023-02-28T03:05:51;101257.75;;;-1.48;67.74
45253;BME280;63171;50.520;30.486;2023-02-28T03:06:43;101257.72;;;-1.52;67.16
45253;BME280;63171;50.520;30.486;2023-02-28T03:07:34;101258.47;;;-1.64;67.13
45253;BME280;63171;50.520;30.486;2023-02-28T03:08:24;101261.91;;;-1.63;67.10
45253;BME280;63171;50.520;30.486;2023-02-28T03:09:15;101261.06;;;-1.61;67.12
45253;BME280;63171;50.520;30.486;2023-02-28T03:10:27;101274.81;;;-1.56;67.21
45253;BME280;63171;50.520;30.486;2023-02-28T03:11:19;101271.44;;;-1.52;67.41
45253;BME280;63171;50.520;30.486;2023-02-28T03:12:12;101273.13;;;-1.52;67.47
45253;BME280;63171;50.520;30.486;2023-02-28T03:14:37;101277.41;;;-1.54;67.09
45253;BME280;63171;50.520;30.486;2023-02-28T03:15:36;101270.47;;;-1.63;67.08
45253;BME280;63171;50.520;30.486;2023-02-28T03:16:36;101274.00;;;-1.53;67.22
45253;BME280;63171;50.520;30.486;2023-02-28T03:17:46;101277.41;;;-1.56;67.00
45253;BME280;63171;50.520;30.486;2023-02-28T03:18:43;101280.72;;;-1.63;67.25
45253;BME280;63171;50.520;30.486;2023-02-28T03:19:52;101277.25;;;-1.69;66.98
45253;BME280;63171;50.520;30.486;2023-02-28T03:20:51;101278.13;;;-1.67;67.12
45253;BME280;63171;50.520;30.486;2023-02-28T03:21:57;101278.09;;;-1.72;66.98
45253;BME280;63171;50.520;30.486;2023-02-28T03:22:52;101281.53;;;-1.70;67.04
45253;BME280;63171;50.520;30.486;2023-02-28T03:23:55;101278.94;;;-1.71;66.88
45253;BME280;63171;50.520;30.486;2023-02-28T03:24:51;101282.38;;;-1.71;66.81
45253;BME280;63171;50.520;30.486;2023-02-28T03:25:57;101279.84;;;-1.68;67.14
45253;BME280;63171;50.520;30.486;2023-02-28T03:26:54;101284.00;;;-1.79;66.85
45253;BME280;63171;50.520;30.486;2023-02-28T03:27:52;101277.16;;;-1.77;66.91
45253;BME280;63171;50.520;30.486;2023-02-28T03:28:50;101281.47;;;-1.74;66.96
45253;BME280;63171;50.520;30.486;2023-02-28T03:29:46;101283.97;;;-1.81;66.65
45253;BME280;63171;50.520;30.486;2023-02-28T03:30:42;101280.66;;;-1.73;66.87
45253;BME280;63171;50.520;30.486;2023-02-28T03:31:39;101280.66;;;-1.72;66.72
45253;BME280;63171;50.520;30.486;2023-02-28T03:32:35;101286.56;;;-1.79;66.71
45253;BME280;63171;50.520;30.486;2023-02-28T03:33:31;101283.13;;;-1.80;66.88
45253;BME280;63171;50.520;30.486;2023-02-28T03:34:26;101286.56;;;-1.79;66.39
45253;BME280;63171;50.520;30.486;2023-02-28T03:35:21;101285.72;;;-1.78;66.59
45253;BME280;63171;50.520;30.486;2023-02-28T03:36:15;101288.22;;;-1.86;66.66
45253;BME280;63171;50.520;30.486;2023-02-28T03:37:12;101287.34;;;-1.86;66.69
45253;BME280;63171;50.520;30.486;2023-02-28T03:38:08;101293.38;;;-1.84;66.58
45253;BME280;63171;50.520;30.486;2023-02-28T03:39:05;101292.56;;;-1.77;66.51
45253;BME280;63171;50.520;30.486;2023-02-28T03:39:59;101295.16;;;-1.74;66.74
45253;BME280;63171;50.520;30.486;2023-02-28T03:41:10;101287.44;;;-1.75;66.58
45253;BME280;63171;50.520;30.486;2023-02-28T03:42:07;101297.72;;;-1.74;66.79
45253;BME280;63171;50.520;30.486;2023-02-28T03:43:02;101288.28;;;-1.78;66.71
45253;BME280;63171;50.520;30.486;2023-02-28T03:43:55;101298.56;;;-1.78;66.48
45253;BME280;63171;50.520;30.486;2023-02-28T03:44:49;101299.41;;;-1.79;66.56
45253;BME280;63171;50.520;30.486;2023-02-28T03:45:41;101289.00;;;-1.90;66.47
45253;BME280;63171;50.520;30.486;2023-02-28T03:46:37;101287.31;;;-1.88;66.43
45253;BME280;63171;50.520;30.486;2023-02-28T03:47:33;101292.56;;;-1.77;66.51
45253;BME280;63171;50.520;30.486;2023-02-28T03:48:28;101283.22;;;-1.73;66.56
45253;BME280;63171;50.520;30.486;2023-02-28T03:49:23;101287.41;;;-1.79;66.64
45253;BME280;63171;50.520;30.486;2023-02-28T03:50:17;101283.22;;;-1.73;66.39
45253;BME280;63171;50.520;30.486;2023-02-28T03:51:10;101288.34;;;-1.73;66.48
45253;BME280;63171;50.520;30.486;2023-02-28T03:52:04;101290.88;;;-1.75;66.52
45253;BME280;63171;50.520;30.486;2023-02-28T03:53:00;101289.13;;;-1.77;66.34
45253;BME280;63171;50.520;30.486;2023-02-28T03:53:56;101290.00;;;-1.75;66.42
45253;BME280;63171;50.520;30.486;2023-02-28T03:54:51;101282.28;;;-1.80;66.50
45253;BME280;63171;50.520;30.486;2023-02-28T03:55:45;101289.13;;;-1.77;66.33
45253;BME280;63171;50.520;30.486;2023-02-28T03:56:38;101292.44;;;-1.88;66.37
45253;BME280;63171;50.520;30.486;2023-02-28T03:57:34;101291.56;;;-1.91;66.18
45253;BME280;63171;50.520;30.486;2023-02-28T03:58:30;101292.53;;;-1.80;66.58
45253;BME280;63171;50.520;30.486;2023-02-28T03:59:25;101288.16;;;-1.87;66.34
45253;BME280;63171;50.520;30.486;2023-02-28T04:00:19;101291.59;;;-1.88;66.42
45253;BME280;63171;50.520;30.486;2023-02-28T04:01:14;101289.16;;;-1.76;66.46
45253;BME280;63171;50.520;30.486;2023-02-28T04:02:05;101280.69;;;-1.69;66.55
45253;BME280;63171;50.520;30.486;2023-02-28T04:02:56;101284.13;;;-1.65;66.74
45253;BME280;63171;50.520;30.486;2023-02-28T04:03:45;101280.72;;;-1.66;66.50
45253;BME280;63171;50.520;30.486;2023-02-28T04:04:36;101287.53;;;-1.68;66.46
45253;BME280;63171;50.520;30.486;2023-02-28T04:05:26;101284.16;;;-1.64;66.35
45253;BME280;63171;50.520;30.486;2023-02-28T04:06:19;101280.72;;;-1.63;66.47
45253;BME280;63171;50.520;30.486;2023-02-28T04:07:11;101285.97;;;-1.55;66.49
45253;BME280;63171;50.520;30.486;2023-02-28T04:08:07;101279.13;;;-1.52;66.60
45253;BME280;63171;50.520;30.486;2023-02-28T04:08:57;101283.44;;;-1.51;66.51
45253;BME280;63171;50.520;30.486;2023-02-28T04:09:48;101283.25;;;-1.69;66.55
45253;BME280;63171;50.520;30.486;2023-02-28T04:10:38;101290.13;;;-1.65;66.42
45253;BME280;63171;50.520;30.486;2023-02-28T04:11:32;101286.66;;;-1.70;66.41
45253;BME280;63171;50.520;30.486;2023-02-28T04:12:24;101284.97;;;-1.66;66.32
45253;BME280;63171;50.520;30.486;2023-02-28T04:13:14;101286.53;;;-1.81;66.39
45253;BME280;63171;50.520;30.486;2023-02-28T04:14:06;101283.94;;;-1.84;66.15
45253;BME280;63171;50.520;30.486;2023-02-28T04:14:57;101279.66;;;-1.86;66.08
45253;BME280;63171;50.520;30.486;2023-02-28T04:15:47;101286.53;;;-1.82;66.19
45253;BME280;63171;50.520;30.486;2023-02-28T04:16:39;101285.72;;;-1.78;66.25
45253;BME280;63171;50.520;30.486;2023-02-28T04:17:29;101284.88;;;-1.77;66.30
45253;BME280;63171;50.520;30.486;2023-02-28T04:18:19;101284.88;;;-1.74;66.36
45253;BME280;63171;50.520;30.486;2023-02-28T04:19:11;101283.16;;;-1.75;66.46
45253;BME280;63171;50.520;30.486;2023-02-28T04:20:02;101279.75;;;-1.74;66.06
45253;BME280;63171;50.520;30.486;2023-02-28T04:20:53;101283.09;;;-1.83;66.34
45253;BME280;63171;50.520;30.486;2023-02-28T04:21:44;101284.81;;;-1.83;66.49
45253;BME280;63171;50.520;30.486;2023-02-28T04:22:35;101276.31;;;-1.76;66.52
45253;BME280;63171;50.520;30.486;2023-02-28T04:23:27;101282.31;;;-1.74;66.23
45253;BME280;63171;50.520;30.486;2023-02-28T04:24:18;101278.13;;;-1.67;66.29
45253;BME280;63171;50.520;30.486;2023-02-28T04:25:09;101278.16;;;-1.64;66.55
45253;BME280;63171;50.520;30.486;2023-02-28T04:25:59;101280.69;;;-1.67;66.57
45253;BME280;63171;50.520;30.486;2023-02-28T04:26:51;101291.06;;;-1.58;66.29
45253;BME280;63171;50.520;30.486;2023-02-28T04:27:40;101278.25;;;-1.57;66.54
45253;BME280;63171;50.520;30.486;2023-02-28T04:28:33;101279.84;;;-1.66;66.25
45253;BME280;63171;50.520;30.486;2023-02-28T04:29:25;101286.66;;;-1.70;66.02
45253;BME280;63171;50.520;30.486;2023-02-28T04:30:16;101282.41;;;-1.66;66.48
45253;BME280;63171;50.520;30.486;2023-02-28T04:31:06;101278.13;;;-1.66;66.41
45253;BME280;63171;50.520;30.486;2023-02-28T04:31:56;101281.66;;;-1.59;66.31
45253;BME280;63171;50.520;30.486;2023-02-28T04:32:48;101286.84;;;-1.52;66.55
45253;BME280;63171;50.520;30.486;2023-02-28T04:33:38;101286.84;;;-1.52;66.31
45253;BME280;63171;50.520;30.486;2023-02-28T04:34:31;101283.38;;;-1.58;66.17
45253;BME280;63171;50.520;30.486;2023-02-28T04:35:20;101284.09;;;-1.70;66.11
45253;BME280;63171;50.520;30.486;2023-02-28T04:36:11;101287.41;;;-1.82;66.28
45253;BME280;63171;50.520;30.486;2023-02-28T04:37:02;101290.78;;;-1.86;65.96
45253;BME280;63171;50.520;30.486;2023-02-28T04:37:53;101286.59;;;-1.76;66.11
45253;BME280;63171;50.520;30.486;2023-02-28T04:38:44;101288.41;;;-1.67;66.48
45253;BME280;63171;50.520;30.486;2023-02-28T04:39:36;101288.44;;;-1.63;66.29
45253;BME280;63171;50.520;30.486;2023-02-28T04:40:25;101288.41;;;-1.66;66.25
45253;BME280;63171;50.520;30.486;2023-02-28T04:41:16;101294.38;;;-1.68;66.56
45253;BME280;63171;50.520;30.486;2023-02-28T04:42:06;101297.84;;;-1.65;66.22
45253;BME280;63171;50.520;30.486;2023-02-28T04:42:56;101288.41;;;-1.66;66.17
45253;BME280;63171;50.520;30.486;2023-02-28T04:43:47;101298.66;;;-1.69;65.98
45253;BME280;63171;50.520;30.486;2023-02-28T04:44:36;101300.41;;;-1.66;65.97
45253;BME280;63171;50.520;30.486;2023-02-28T04:45:28;101300.47;;;-1.60;66.27
45253;BME280;63171;50.520;30.486;2023-02-28T04:46:22;101303.97;;;-1.52;66.14